sensor_id;sensor_type;location;lat;lon;timestamp;P1;durP1;ratioP1;P2;durP2;ratioP2
9997;SDS011;5038;53.064;8.624;2022-07-06T00:01:09;2.60;;;2.10;;
9997;SDS011;5038;53.064;8.624;2022-07-06T00:03:38;3.00;;;1.93;;
9997;SDS011;5038;53.064;8.624;2022-07-06T00:06:07;3.30;;;2.27;;
9997;SDS011;5038;53.064;8.624;2022-07-06T00:08:36;4.10;;;2.30;;
9997;SDS011;5038;53.064;8.624;2022-07-06T00:11:04;4.00;;;2.47;;
9997;SDS011;5038;53.064;8.624;2022-07-06T00:13:33;4.20;;;2.30;;
9997;SDS011;5038;53.064;8.624;2022-07-06T00:16:01;5.30;;;2.13;;
9997;SDS011;5038;53.064;8.624;2022-07-06T00:18:29;6.40;;;3.00;;
9997;SDS011;5038;53.064;8.624;2022-07-06T00:20:58;5.20;;;2.30;;
9997;SDS011;5038;53.064;8.624;2022-07-06T00:23:27;5.00;;;2.47;;
9997;SDS011;5038;53.064;8.624;2022-07-06T00:25:56;6.57;;;2.57;;
9997;SDS011;5038;53.064;8.624;2022-07-06T00:28:24;5.67;;;2.60;;
9997;SDS011;5038;53.064;8.624;2022-07-06T00:30:53;4.17;;;2.57;;
9997;SDS011;5038;53.064;8.624;2022-07-06T00:33:23;3.30;;;2.20;;
9997;SDS011;5038;53.064;8.624;2022-07-06T00:35:51;7.60;;;2.70;;
9997;SDS011;5038;53.064;8.624;2022-07-06T00:38:19;6.83;;;2.80;;
9997;SDS011;5038;53.064;8.624;2022-07-06T00:40:49;6.30;;;2.47;;
9997;SDS011;5038;53.064;8.624;2022-07-06T00:43:18;5.07;;;2.40;;
9997;SDS011;5038;53.064;8.624;2022-07-06T00:45:46;4.57;;;2.60;;
9997;SDS011;5038;53.064;8.624;2022-07-06T00:48:14;3.00;;;2.70;;
9997;SDS011;5038;53.064;8.624;2022-07-06T00:50:43;5.53;;;2.50;;
9997;SDS011;5038;53.064;8.624;2022-07-06T00:53:11;3.20;;;2.70;;
9997;SDS011;5038;53.064;8.624;2022-07-06T00:55:40;6.40;;;2.70;;
9997;SDS011;5038;53.064;8.624;2022-07-06T00:58:11;3.90;;;2.40;;
9997;SDS011;5038;53.064;8.624;2022-07-06T01:00:39;4.00;;;2.50;;
9997;SDS011;5038;53.064;8.624;2022-07-06T01:03:11;4.27;;;2.40;;
9997;SDS011;5038;53.064;8.624;2022-07-06T01:05:39;2.80;;;2.50;;
9997;SDS011;5038;53.064;8.624;2022-07-06T01:08:08;7.37;;;2.87;;
9997;SDS011;5038;53.064;8.624;2022-07-06T01:10:36;4.87;;;2.47;;
9997;SDS011;5038;53.064;8.624;2022-07-06T01:13:05;4.00;;;2.53;;
9997;SDS011;5038;53.064;8.624;2022-07-06T01:15:35;3.73;;;2.43;;
9997;SDS011;5038;53.064;8.624;2022-07-06T01:18:03;5.93;;;2.73;;
9997;SDS011;5038;53.064;8.624;2022-07-06T01:20:34;5.93;;;2.20;;
9997;SDS011;5038;53.064;8.624;2022-07-06T01:23:02;3.90;;;2.30;;
9997;SDS011;5038;53.064;8.624;2022-07-06T01:25:30;5.40;;;2.73;;
9997;SDS011;5038;53.064;8.624;2022-07-06T01:27:59;3.40;;;2.60;;
9997;SDS011;5038;53.064;8.624;2022-07-06T01:30:29;5.07;;;2.40;;
9997;SDS011;5038;53.064;8.624;2022-07-06T01:32:57;4.27;;;2.57;;
9997;SDS011;5038;53.064;8.624;2022-07-06T01:35:26;5.10;;;2.40;;
9997;SDS011;5038;53.064;8.624;2022-07-06T01:37:58;3.53;;;2.40;;
9997;SDS011;5038;53.064;8.624;2022-07-06T01:40:26;6.23;;;3.73;;
9997;SDS011;5038;53.064;8.624;2022-07-06T01:42:56;4.37;;;2.50;;
9997;SDS011;5038;53.064;8.624;2022-07-06T01:45:24;4.40;;;2.30;;
9997;SDS011;5038;53.064;8.624;2022-07-06T01:47:53;5.77;;;2.57;;
9997;SDS011;5038;53.064;8.624;2022-07-06T01:50:21;15.90;;;3.43;;
9997;SDS011;5038;53.064;8.624;2022-07-06T01:52:50;3.60;;;2.60;;
9997;SDS011;5038;53.064;8.624;2022-07-06T01:55:20;4.60;;;2.60;;
9997;SDS011;5038;53.064;8.624;2022-07-06T01:57:48;3.60;;;2.50;;
9997;SDS011;5038;53.064;8.624;2022-07-06T02:00:16;3.10;;;2.50;;
9997;SDS011;5038;53.064;8.624;2022-07-06T02:02:48;5.17;;;2.83;;
9997;SDS011;5038;53.064;8.624;2022-07-06T02:05:16;6.20;;;2.73;;
9997;SDS011;5038;53.064;8.624;2022-07-06T02:07:45;4.03;;;3.40;;
9997;SDS011;5038;53.064;8.624;2022-07-06T02:10:13;5.63;;;3.30;;
9997;SDS011;5038;53.064;8.624;2022-07-06T02:12:44;9.17;;;3.00;;
9997;SDS011;5038;53.064;8.624;2022-07-06T02:15:12;4.60;;;2.83;;
9997;SDS011;5038;53.064;8.624;2022-07-06T02:17:41;4.30;;;3.27;;
9997;SDS011;5038;53.064;8.624;2022-07-06T02:20:09;9.77;;;3.60;;
9997;SDS011;5038;53.064;8.624;2022-07-06T02:22:38;5.57;;;3.20;;
9997;SDS011;5038;53.064;8.624;2022-07-06T02:25:07;4.63;;;3.23;;
9997;SDS011;5038;53.064;8.624;2022-07-06T02:27:37;5.53;;;3.20;;
9997;SDS011;5038;53.064;8.624;2022-07-06T02:30:10;5.80;;;2.90;;
9997;SDS011;5038;53.064;8.624;2022-07-06T02:32:38;5.50;;;3.67;;
9997;SDS011;5038;53.064;8.624;2022-07-06T02:35:07;6.23;;;3.00;;
9997;SDS011;5038;53.064;8.624;2022-07-06T02:37:36;4.90;;;3.17;;
9997;SDS011;5038;53.064;8.624;2022-07-06T02:40:05;6.80;;;3.17;;
9997;SDS011;5038;53.064;8.624;2022-07-06T02:42:34;5.33;;;2.90;;
9997;SDS011;5038;53.064;8.624;2022-07-06T02:45:03;4.37;;;2.10;;
9997;SDS011;5038;53.064;8.624;2022-07-06T02:47:34;4.40;;;2.60;;
9997;SDS011;5038;53.064;8.624;2022-07-06T02:50:03;5.13;;;3.07;;
9997;SDS011;5038;53.064;8.624;2022-07-06T02:52:31;8.00;;;3.03;;
9997;SDS011;5038;53.064;8.624;2022-07-06T02:55:07;4.50;;;2.90;;
9997;SDS011;5038;53.064;8.624;2022-07-06T02:57:36;4.60;;;3.40;;
9997;SDS011;5038;53.064;8.624;2022-07-06T03:00:05;6.87;;;3.23;;
9997;SDS011;5038;53.064;8.624;2022-07-06T03:02:37;4.43;;;2.87;;
9997;SDS011;5038;53.064;8.624;2022-07-06T03:05:06;4.97;;;3.10;;
9997;SDS011;5038;53.064;8.624;2022-07-06T03:07:35;4.80;;;3.07;;
9997;SDS011;5038;53.064;8.624;2022-07-06T03:10:05;5.60;;;3.00;;
9997;SDS011;5038;53.064;8.624;2022-07-06T03:12:33;5.20;;;2.93;;
9997;SDS011;5038;53.064;8.624;2022-07-06T03:15:02;4.33;;;2.77;;
9997;SDS011;5038;53.064;8.624;2022-07-06T03:17:32;6.13;;;3.00;;
9997;SDS011;5038;53.064;8.624;2022-07-06T03:20:01;5.67;;;2.90;;
9997;SDS011;5038;53.064;8.624;2022-07-06T03:22:30;5.63;;;3.10;;
9997;SDS011;5038;53.064;8.624;2022-07-06T03:25:00;6.60;;;3.87;;
9997;SDS011;5038;53.064;8.624;2022-07-06T03:27:29;6.60;;;3.57;;
9997;SDS011;5038;53.064;8.624;2022-07-06T03:29:58;5.47;;;3.10;;
9997;SDS011;5038;53.064;8.624;2022-07-06T03:32:26;6.63;;;3.10;;
9997;SDS011;5038;53.064;8.624;2022-07-06T03:34:56;6.07;;;3.40;;
9997;SDS011;5038;53.064;8.624;2022-07-06T03:37:25;4.07;;;3.00;;
9997;SDS011;5038;53.064;8.624;2022-07-06T03:39:54;4.70;;;3.30;;
9997;SDS011;5038;53.064;8.624;2022-07-06T03:42:22;6.83;;;3.07;;
9997;SDS011;5038;53.064;8.624;2022-07-06T03:44:50;4.30;;;3.17;;
9997;SDS011;5038;53.064;8.624;2022-07-06T03:47:19;5.27;;;2.33;;
9997;SDS011;5038;53.064;8.624;2022-07-06T03:49:48;10.00;;;3.77;;
9997;SDS011;5038;53.064;8.624;2022-07-06T03:52:16;6.43;;;2.87;;
9997;SDS011;5038;53.064;8.624;2022-07-06T03:54:51;6.00;;;2.90;;
9997;SDS011;5038;53.064;8.624;2022-07-06T03:57:23;5.63;;;3.40;;
9997;SDS011;5038;53.064;8.624;2022-07-06T03:59:53;8.00;;;3.37;;
9997;SDS011;5038;53.064;8.624;2022-07-06T04:02:22;7.37;;;3.67;;
9997;SDS011;5038;53.064;8.624;2022-07-06T04:04:52;5.27;;;3.07;;
9997;SDS011;5038;53.064;8.624;2022-07-06T04:07:20;5.00;;;2.80;;
9997;SDS011;5038;53.064;8.624;2022-07-06T04:09:50;5.50;;;3.33;;
9997;SDS011;5038;53.064;8.624;2022-07-06T04:12:18;5.60;;;3.47;;
9997;SDS011;5038;53.064;8.624;2022-07-06T04:14:47;7.03;;;4.20;;
9997;SDS011;5038;53.064;8.624;2022-07-06T04:17:15;5.17;;;3.47;;
9997;SDS011;5038;53.064;8.624;2022-07-06T04:20:01;3.80;;;2.57;;
9997;SDS011;5038;53.064;8.624;2022-07-06T04:22:30;3.50;;;3.20;;
9997;SDS011;5038;53.064;8.624;2022-07-06T04:24:59;4.53;;;3.27;;
9997;SDS011;5038;53.064;8.624;2022-07-06T04:27:28;4.57;;;3.27;;
9997;SDS011;5038;53.064;8.624;2022-07-06T04:29:56;6.70;;;3.00;;
9997;SDS011;5038;53.064;8.624;2022-07-06T04:32:25;5.60;;;3.03;;
9997;SDS011;5038;53.064;8.624;2022-07-06T04:34:54;6.00;;;3.27;;
9997;SDS011;5038;53.064;8.624;2022-07-06T04:37:22;8.97;;;3.73;;
9997;SDS011;5038;53.064;8.624;2022-07-06T04:39:51;3.33;;;2.70;;
9997;SDS011;5038;53.064;8.624;2022-07-06T04:42:21;6.40;;;2.90;;
9997;SDS011;5038;53.064;8.624;2022-07-06T04:44:50;6.60;;;2.43;;
9997;SDS011;5038;53.064;8.624;2022-07-06T04:47:18;4.13;;;2.73;;
9997;SDS011;5038;53.064;8.624;2022-07-06T04:49:46;4.50;;;2.70;;
9997;SDS011;5038;53.064;8.624;2022-07-06T04:52:16;4.93;;;2.87;;
9997;SDS011;5038;53.064;8.624;2022-07-06T04:54:44;4.70;;;2.90;;
9997;SDS011;5038;53.064;8.624;2022-07-06T04:57:13;2.93;;;2.47;;
9997;SDS011;5038;53.064;8.624;2022-07-06T04:59:43;5.67;;;2.80;;
9997;SDS011;5038;53.064;8.624;2022-07-06T05:02:12;4.10;;;2.53;;
9997;SDS011;5038;53.064;8.624;2022-07-06T05:04:40;6.63;;;2.60;;
9997;SDS011;5038;53.064;8.624;2022-07-06T05:07:09;6.37;;;3.13;;
9997;SDS011;5038;53.064;8.624;2022-07-06T05:09:37;7.70;;;2.83;;
9997;SDS011;5038;53.064;8.624;2022-07-06T05:12:05;8.80;;;2.43;;
9997;SDS011;5038;53.064;8.624;2022-07-06T05:14:35;11.27;;;2.93;;
9997;SDS011;5038;53.064;8.624;2022-07-06T05:17:07;6.63;;;3.37;;
9997;SDS011;5038;53.064;8.624;2022-07-06T05:19:36;5.00;;;2.80;;
9997;SDS011;5038;53.064;8.624;2022-07-06T05:22:05;6.23;;;2.80;;
9997;SDS011;5038;53.064;8.624;2022-07-06T05:24:34;7.50;;;3.13;;
9997;SDS011;5038;53.064;8.624;2022-07-06T05:27:02;5.03;;;3.10;;
9997;SDS011;5038;53.064;8.624;2022-07-06T05:29:31;6.33;;;3.13;;
9997;SDS011;5038;53.064;8.624;2022-07-06T05:32:00;4.17;;;2.37;;
9997;SDS011;5038;53.064;8.624;2022-07-06T05:34:29;5.47;;;2.80;;
9997;SDS011;5038;53.064;8.624;2022-07-06T05:36:58;3.83;;;2.80;;
9997;SDS011;5038;53.064;8.624;2022-07-06T05:39:27;3.70;;;2.63;;
9997;SDS011;5038;53.064;8.624;2022-07-06T05:41:56;5.50;;;2.73;;
9997;SDS011;5038;53.064;8.624;2022-07-06T05:44:24;4.23;;;2.53;;
9997;SDS011;5038;53.064;8.624;2022-07-06T05:46:52;8.03;;;3.10;;
9997;SDS011;5038;53.064;8.624;2022-07-06T05:49:44;4.13;;;2.70;;
9997;SDS011;5038;53.064;8.624;2022-07-06T05:52:30;4.93;;;2.50;;
9997;SDS011;5038;53.064;8.624;2022-07-06T05:54:58;6.37;;;3.07;;
9997;SDS011;5038;53.064;8.624;2022-07-06T05:57:26;6.83;;;2.57;;
9997;SDS011;5038;53.064;8.624;2022-07-06T05:59:55;5.53;;;2.37;;
9997;SDS011;5038;53.064;8.624;2022-07-06T06:02:24;3.80;;;2.50;;
9997;SDS011;5038;53.064;8.624;2022-07-06T06:04:55;3.90;;;2.30;;
9997;SDS011;5038;53.064;8.624;2022-07-06T06:07:23;5.77;;;2.40;;
9997;SDS011;5038;53.064;8.624;2022-07-06T06:09:51;4.87;;;2.00;;
9997;SDS011;5038;53.064;8.624;2022-07-06T06:12:20;7.60;;;2.37;;
9997;SDS011;5038;53.064;8.624;2022-07-06T06:14:48;5.50;;;2.10;;
9997;SDS011;5038;53.064;8.624;2022-07-06T06:17:16;3.60;;;2.40;;
9997;SDS011;5038;53.064;8.624;2022-07-06T06:19:44;5.00;;;2.23;;
9997;SDS011;5038;53.064;8.624;2022-07-06T06:22:14;4.57;;;3.03;;
9997;SDS011;5038;53.064;8.624;2022-07-06T06:24:42;6.83;;;2.30;;
9997;SDS011;5038;53.064;8.624;2022-07-06T06:27:11;4.37;;;2.17;;
9997;SDS011;5038;53.064;8.624;2022-07-06T06:29:39;2.90;;;1.80;;
9997;SDS011;5038;53.064;8.624;2022-07-06T06:32:10;5.30;;;2.63;;
9997;SDS011;5038;53.064;8.624;2022-07-06T06:34:39;3.23;;;2.10;;
9997;SDS011;5038;53.064;8.624;2022-07-06T06:37:08;6.47;;;2.27;;
9997;SDS011;5038;53.064;8.624;2022-07-06T06:39:37;3.77;;;1.93;;
9997;SDS011;5038;53.064;8.624;2022-07-06T06:42:05;4.63;;;1.60;;
9997;SDS011;5038;53.064;8.624;2022-07-06T06:44:34;5.60;;;2.20;;
9997;SDS011;5038;53.064;8.624;2022-07-06T06:47:02;3.37;;;1.63;;
9997;SDS011;5038;53.064;8.624;2022-07-06T06:49:31;4.17;;;1.70;;
9997;SDS011;5038;53.064;8.624;2022-07-06T06:51:59;5.57;;;2.13;;
9997;SDS011;5038;53.064;8.624;2022-07-06T06:54:49;5.03;;;2.10;;
9997;SDS011;5038;53.064;8.624;2022-07-06T06:57:17;3.93;;;1.60;;
9997;SDS011;5038;53.064;8.624;2022-07-06T06:59:45;3.07;;;2.03;;
9997;SDS011;5038;53.064;8.624;2022-07-06T07:02:13;3.50;;;1.70;;
9997;SDS011;5038;53.064;8.624;2022-07-06T07:04:42;8.03;;;1.63;;
9997;SDS011;5038;53.064;8.624;2022-07-06T07:07:10;2.93;;;1.40;;
9997;SDS011;5038;53.064;8.624;2022-07-06T07:09:38;3.27;;;1.60;;
9997;SDS011;5038;53.064;8.624;2022-07-06T07:12:08;6.60;;;1.47;;
9997;SDS011;5038;53.064;8.624;2022-07-06T07:14:38;2.80;;;0.97;;
9997;SDS011;5038;53.064;8.624;2022-07-06T07:17:07;3.70;;;1.27;;
9997;SDS011;5038;53.064;8.624;2022-07-06T07:19:36;2.67;;;1.93;;
9997;SDS011;5038;53.064;8.624;2022-07-06T07:22:04;2.97;;;1.40;;
9997;SDS011;5038;53.064;8.624;2022-07-06T07:24:33;5.00;;;1.87;;
9997;SDS011;5038;53.064;8.624;2022-07-06T07:27:01;3.20;;;1.20;;
9997;SDS011;5038;53.064;8.624;2022-07-06T07:29:31;4.33;;;1.30;;
9997;SDS011;5038;53.064;8.624;2022-07-06T07:31:59;7.43;;;1.40;;
9997;SDS011;5038;53.064;8.624;2022-07-06T07:34:27;3.60;;;1.30;;
9997;SDS011;5038;53.064;8.624;2022-07-06T07:36:56;4.23;;;1.60;;
9997;SDS011;5038;53.064;8.624;2022-07-06T07:39:24;3.03;;;1.40;;
9997;SDS011;5038;53.064;8.624;2022-07-06T07:41:52;3.60;;;1.30;;
9997;SDS011;5038;53.064;8.624;2022-07-06T07:44:20;2.57;;;1.37;;
9997;SDS011;5038;53.064;8.624;2022-07-06T07:46:50;3.00;;;1.07;;
9997;SDS011;5038;53.064;8.624;2022-07-06T07:49:19;3.40;;;1.00;;
9997;SDS011;5038;53.064;8.624;2022-07-06T07:51:47;3.93;;;1.70;;
9997;SDS011;5038;53.064;8.624;2022-07-06T07:54:16;2.37;;;0.90;;
9997;SDS011;5038;53.064;8.624;2022-07-06T07:56:44;3.73;;;0.90;;
9997;SDS011;5038;53.064;8.624;2022-07-06T07:59:13;4.30;;;1.10;;
9997;SDS011;5038;53.064;8.624;2022-07-06T08:01:41;1.67;;;1.03;;
9997;SDS011;5038;53.064;8.624;2022-07-06T08:04:11;2.80;;;0.90;;
9997;SDS011;5038;53.064;8.624;2022-07-06T08:06:39;3.43;;;1.30;;
9997;SDS011;5038;53.064;8.624;2022-07-06T08:09:08;3.00;;;1.10;;
9997;SDS011;5038;53.064;8.624;2022-07-06T08:11:36;2.37;;;1.17;;
9997;SDS011;5038;53.064;8.624;2022-07-06T08:14:04;3.97;;;1.00;;
9997;SDS011;5038;53.064;8.624;2022-07-06T08:16:33;4.13;;;1.37;;
9997;SDS011;5038;53.064;8.624;2022-07-06T08:19:02;2.80;;;1.00;;
9997;SDS011;5038;53.064;8.624;2022-07-06T08:21:37;3.27;;;1.10;;
9997;SDS011;5038;53.064;8.624;2022-07-06T08:24:06;5.20;;;1.00;;
9997;SDS011;5038;53.064;8.624;2022-07-06T08:26:35;2.27;;;1.30;;
9997;SDS011;5038;53.064;8.624;2022-07-06T08:29:04;6.00;;;1.73;;
9997;SDS011;5038;53.064;8.624;2022-07-06T08:31:32;4.80;;;1.53;;
9997;SDS011;5038;53.064;8.624;2022-07-06T08:34:21;2.83;;;1.53;;
9997;SDS011;5038;53.064;8.624;2022-07-06T08:36:50;3.70;;;1.10;;
9997;SDS011;5038;53.064;8.624;2022-07-06T08:39:19;2.83;;;1.03;;
9997;SDS011;5038;53.064;8.624;2022-07-06T08:41:47;3.20;;;0.90;;
9997;SDS011;5038;53.064;8.624;2022-07-06T08:44:16;3.57;;;1.60;;
9997;SDS011;5038;53.064;8.624;2022-07-06T08:46:45;2.13;;;0.80;;
9997;SDS011;5038;53.064;8.624;2022-07-06T08:49:16;2.03;;;0.93;;
9997;SDS011;5038;53.064;8.624;2022-07-06T08:51:46;4.40;;;1.67;;
9997;SDS011;5038;53.064;8.624;2022-07-06T08:54:16;4.10;;;1.10;;
9997;SDS011;5038;53.064;8.624;2022-07-06T08:56:46;3.03;;;1.63;;
9997;SDS011;5038;53.064;8.624;2022-07-06T08:59:15;4.03;;;1.30;;
9997;SDS011;5038;53.064;8.624;2022-07-06T09:01:44;2.17;;;1.10;;
9997;SDS011;5038;53.064;8.624;2022-07-06T09:04:14;3.20;;;1.23;;
9997;SDS011;5038;53.064;8.624;2022-07-06T09:06:46;3.23;;;1.30;;
9997;SDS011;5038;53.064;8.624;2022-07-06T09:09:18;3.50;;;1.50;;
9997;SDS011;5038;53.064;8.624;2022-07-06T09:11:48;3.67;;;1.47;;
9997;SDS011;5038;53.064;8.624;2022-07-06T09:14:16;2.90;;;1.10;;
9997;SDS011;5038;53.064;8.624;2022-07-06T09:16:46;3.10;;;0.80;;
9997;SDS011;5038;53.064;8.624;2022-07-06T09:19:19;1.70;;;0.80;;
9997;SDS011;5038;53.064;8.624;2022-07-06T09:21:47;2.67;;;0.77;;
9997;SDS011;5038;53.064;8.624;2022-07-06T09:24:17;2.37;;;0.80;;
9997;SDS011;5038;53.064;8.624;2022-07-06T09:26:47;2.70;;;1.23;;
9997;SDS011;5038;53.064;8.624;2022-07-06T09:29:15;2.00;;;0.70;;
9997;SDS011;5038;53.064;8.624;2022-07-06T09:31:55;3.20;;;0.93;;
9997;SDS011;5038;53.064;8.624;2022-07-06T09:34:26;3.20;;;1.30;;
9997;SDS011;5038;53.064;8.624;2022-07-06T09:37:08;1.87;;;0.90;;
9997;SDS011;5038;53.064;8.624;2022-07-06T09:39:38;2.20;;;0.80;;
9997;SDS011;5038;53.064;8.624;2022-07-06T09:42:06;2.43;;;0.60;;
9997;SDS011;5038;53.064;8.624;2022-07-06T09:44:36;1.50;;;0.60;;
9997;SDS011;5038;53.064;8.624;2022-07-06T09:47:05;1.73;;;0.80;;
9997;SDS011;5038;53.064;8.624;2022-07-06T09:49:35;4.10;;;0.60;;
9997;SDS011;5038;53.064;8.624;2022-07-06T09:52:04;1.87;;;0.73;;
9997;SDS011;5038;53.064;8.624;2022-07-06T09:54:34;1.77;;;0.83;;
9997;SDS011;5038;53.064;8.624;2022-07-06T09:57:06;4.67;;;1.00;;
9997;SDS011;5038;53.064;8.624;2022-07-06T09:59:36;4.00;;;1.00;;
9997;SDS011;5038;53.064;8.624;2022-07-06T10:02:05;3.00;;;0.70;;
9997;SDS011;5038;53.064;8.624;2022-07-06T10:04:35;3.20;;;0.87;;
9997;SDS011;5038;53.064;8.624;2022-07-06T10:07:04;3.07;;;1.03;;
9997;SDS011;5038;53.064;8.624;2022-07-06T10:09:36;2.30;;;0.70;;
9997;SDS011;5038;53.064;8.624;2022-07-06T10:12:07;1.83;;;0.70;;
9997;SDS011;5038;53.064;8.624;2022-07-06T10:14:40;2.97;;;1.27;;
9997;SDS011;5038;53.064;8.624;2022-07-06T10:17:16;1.90;;;0.80;;
9997;SDS011;5038;53.064;8.624;2022-07-06T10:19:45;3.67;;;1.00;;
9997;SDS011;5038;53.064;8.624;2022-07-06T10:22:15;2.83;;;1.13;;
9997;SDS011;5038;53.064;8.624;2022-07-06T10:24:45;3.80;;;1.03;;
9997;SDS011;5038;53.064;8.624;2022-07-06T10:27:16;4.17;;;0.90;;
9997;SDS011;5038;53.064;8.624;2022-07-06T10:29:44;2.87;;;0.90;;
9997;SDS011;5038;53.064;8.624;2022-07-06T10:32:12;2.13;;;0.90;;
9997;SDS011;5038;53.064;8.624;2022-07-06T10:34:45;3.77;;;0.93;;
9997;SDS011;5038;53.064;8.624;2022-07-06T10:37:21;2.23;;;0.87;;
9997;SDS011;5038;53.064;8.624;2022-07-06T10:39:51;2.20;;;0.80;;
9997;SDS011;5038;53.064;8.624;2022-07-06T10:42:42;3.30;;;0.80;;
9997;SDS011;5038;53.064;8.624;2022-07-06T10:45:12;3.47;;;0.83;;
9997;SDS011;5038;53.064;8.624;2022-07-06T10:47:41;3.40;;;1.03;;
9997;SDS011;5038;53.064;8.624;2022-07-06T10:50:10;3.00;;;0.80;;
9997;SDS011;5038;53.064;8.624;2022-07-06T10:52:52;3.00;;;0.90;;
9997;SDS011;5038;53.064;8.624;2022-07-06T10:55:29;2.50;;;1.10;;
9997;SDS011;5038;53.064;8.624;2022-07-06T10:58:00;2.50;;;1.30;;
9997;SDS011;5038;53.064;8.624;2022-07-06T11:03:29;2.33;;;1.10;;
9997;SDS011;5038;53.064;8.624;2022-07-06T11:05:58;2.97;;;1.20;;
9997;SDS011;5038;53.064;8.624;2022-07-06T11:08:47;2.80;;;0.80;;
9997;SDS011;5038;53.064;8.624;2022-07-06T11:11:18;3.13;;;0.87;;
9997;SDS011;5038;53.064;8.624;2022-07-06T11:13:50;2.33;;;0.60;;
9997;SDS011;5038;53.064;8.624;2022-07-06T11:16:20;2.77;;;0.60;;
9997;SDS011;5038;53.064;8.624;2022-07-06T11:18:58;2.90;;;1.00;;
9997;SDS011;5038;53.064;8.624;2022-07-06T11:21:32;2.00;;;0.73;;
9997;SDS011;5038;53.064;8.624;2022-07-06T11:24:16;1.37;;;0.60;;
9997;SDS011;5038;53.064;8.624;2022-07-06T11:26:48;2.70;;;0.70;;
9997;SDS011;5038;53.064;8.624;2022-07-06T11:29:19;1.30;;;0.63;;
9997;SDS011;5038;53.064;8.624;2022-07-06T11:31:50;3.90;;;1.90;;
9997;SDS011;5038;53.064;8.624;2022-07-06T11:34:21;2.00;;;0.70;;
9997;SDS011;5038;53.064;8.624;2022-07-06T11:36:54;2.00;;;1.10;;
9997;SDS011;5038;53.064;8.624;2022-07-06T11:39:26;1.20;;;0.50;;
9997;SDS011;5038;53.064;8.624;2022-07-06T11:41:54;1.97;;;0.80;;
9997;SDS011;5038;53.064;8.624;2022-07-06T11:44:24;2.60;;;0.70;;
9997;SDS011;5038;53.064;8.624;2022-07-06T11:46:53;2.30;;;0.73;;
9997;SDS011;5038;53.064;8.624;2022-07-06T11:49:23;1.83;;;0.70;;
9997;SDS011;5038;53.064;8.624;2022-07-06T11:51:52;3.00;;;0.87;;
9997;SDS011;5038;53.064;8.624;2022-07-06T11:54:21;1.77;;;0.70;;
9997;SDS011;5038;53.064;8.624;2022-07-06T11:56:52;3.10;;;0.60;;
9997;SDS011;5038;53.064;8.624;2022-07-06T11:59:21;2.57;;;0.70;;
9997;SDS011;5038;53.064;8.624;2022-07-06T12:01:58;2.20;;;0.70;;
9997;SDS011;5038;53.064;8.624;2022-07-06T12:04:27;2.07;;;0.50;;
9997;SDS011;5038;53.064;8.624;2022-07-06T12:06:59;3.53;;;0.90;;
9997;SDS011;5038;53.064;8.624;2022-07-06T12:09:29;1.70;;;0.70;;
9997;SDS011;5038;53.064;8.624;2022-07-06T12:11:59;1.83;;;0.60;;
9997;SDS011;5038;53.064;8.624;2022-07-06T12:14:29;3.00;;;0.90;;
9997;SDS011;5038;53.064;8.624;2022-07-06T12:17:03;3.33;;;1.27;;
9997;SDS011;5038;53.064;8.624;2022-07-06T12:19:34;1.67;;;0.70;;
9997;SDS011;5038;53.064;8.624;2022-07-06T12:22:04;1.87;;;0.80;;
9997;SDS011;5038;53.064;8.624;2022-07-06T12:24:33;4.20;;;0.80;;
9997;SDS011;5038;53.064;8.624;2022-07-06T12:27:11;4.40;;;1.40;;
9997;SDS011;5038;53.064;8.624;2022-07-06T12:29:41;4.50;;;0.87;;
9997;SDS011;5038;53.064;8.624;2022-07-06T12:32:16;3.13;;;0.90;;
9997;SDS011;5038;53.064;8.624;2022-07-06T12:34:45;1.80;;;0.70;;
9997;SDS011;5038;53.064;8.624;2022-07-06T12:37:13;1.93;;;0.77;;
9997;SDS011;5038;53.064;8.624;2022-07-06T12:39:42;3.83;;;1.00;;
9997;SDS011;5038;53.064;8.624;2022-07-06T12:42:14;2.83;;;1.00;;
9997;SDS011;5038;53.064;8.624;2022-07-06T12:44:46;2.13;;;0.90;;
9997;SDS011;5038;53.064;8.624;2022-07-06T12:47:18;1.50;;;0.73;;
9997;SDS011;5038;53.064;8.624;2022-07-06T12:50:03;3.87;;;0.80;;
9997;SDS011;5038;53.064;8.624;2022-07-06T12:52:32;2.33;;;0.90;;
9997;SDS011;5038;53.064;8.624;2022-07-06T12:55:01;3.00;;;0.73;;
9997;SDS011;5038;53.064;8.624;2022-07-06T12:57:42;1.53;;;0.70;;
9997;SDS011;5038;53.064;8.624;2022-07-06T13:00:12;2.33;;;0.90;;
9997;SDS011;5038;53.064;8.624;2022-07-06T13:02:45;2.67;;;0.63;;
9997;SDS011;5038;53.064;8.624;2022-07-06T13:05:34;3.77;;;0.90;;
9997;SDS011;5038;53.064;8.624;2022-07-06T13:08:05;4.07;;;0.93;;
9997;SDS011;5038;53.064;8.624;2022-07-06T13:10:35;1.77;;;0.90;;
9997;SDS011;5038;53.064;8.624;2022-07-06T13:13:03;2.57;;;0.90;;
9997;SDS011;5038;53.064;8.624;2022-07-06T13:15:35;3.03;;;1.47;;
9997;SDS011;5038;53.064;8.624;2022-07-06T13:18:04;4.03;;;0.80;;
9997;SDS011;5038;53.064;8.624;2022-07-06T13:20:38;2.13;;;0.87;;
9997;SDS011;5038;53.064;8.624;2022-07-06T13:23:08;2.30;;;0.90;;
9997;SDS011;5038;53.064;8.624;2022-07-06T13:25:36;3.57;;;0.80;;
9997;SDS011;5038;53.064;8.624;2022-07-06T13:28:04;3.27;;;1.07;;
9997;SDS011;5038;53.064;8.624;2022-07-06T13:30:33;4.30;;;0.90;;
9997;SDS011;5038;53.064;8.624;2022-07-06T13:33:01;2.13;;;0.73;;
9997;SDS011;5038;53.064;8.624;2022-07-06T13:35:30;3.20;;;0.87;;
9997;SDS011;5038;53.064;8.624;2022-07-06T13:37:59;2.70;;;0.70;;
9997;SDS011;5038;53.064;8.624;2022-07-06T13:40:27;2.07;;;0.97;;
9997;SDS011;5038;53.064;8.624;2022-07-06T13:42:56;2.30;;;0.80;;
9997;SDS011;5038;53.064;8.624;2022-07-06T13:45:24;2.10;;;0.50;;
9997;SDS011;5038;53.064;8.624;2022-07-06T13:47:52;1.60;;;0.67;;
9997;SDS011;5038;53.064;8.624;2022-07-06T13:50:20;1.90;;;0.70;;
9997;SDS011;5038;53.064;8.624;2022-07-06T13:52:50;1.77;;;0.60;;
9997;SDS011;5038;53.064;8.624;2022-07-06T13:55:18;2.73;;;0.67;;
9997;SDS011;5038;53.064;8.624;2022-07-06T13:57:46;2.50;;;0.70;;
9997;SDS011;5038;53.064;8.624;2022-07-06T14:00:15;1.80;;;0.73;;
9997;SDS011;5038;53.064;8.624;2022-07-06T14:02:44;1.47;;;0.70;;
9997;SDS011;5038;53.064;8.624;2022-07-06T14:05:13;1.60;;;0.70;;
9997;SDS011;5038;53.064;8.624;2022-07-06T14:07:41;2.50;;;1.10;;
9997;SDS011;5038;53.064;8.624;2022-07-06T14:10:11;3.40;;;0.80;;
9997;SDS011;5038;53.064;8.624;2022-07-06T14:12:39;3.20;;;0.87;;
9997;SDS011;5038;53.064;8.624;2022-07-06T14:15:07;2.23;;;0.70;;
9997;SDS011;5038;53.064;8.624;2022-07-06T14:17:36;5.13;;;1.37;;
9997;SDS011;5038;53.064;8.624;2022-07-06T14:20:05;2.03;;;0.60;;
9997;SDS011;5038;53.064;8.624;2022-07-06T14:22:34;5.10;;;0.87;;
9997;SDS011;5038;53.064;8.624;2022-07-06T14:25:02;3.13;;;1.00;;
9997;SDS011;5038;53.064;8.624;2022-07-06T14:27:34;1.60;;;0.70;;
9997;SDS011;5038;53.064;8.624;2022-07-06T14:30:03;3.10;;;1.40;;
9997;SDS011;5038;53.064;8.624;2022-07-06T14:32:32;3.90;;;0.93;;
9997;SDS011;5038;53.064;8.624;2022-07-06T14:35:00;2.10;;;0.90;;
9997;SDS011;5038;53.064;8.624;2022-07-06T14:37:28;2.17;;;0.80;;
9997;SDS011;5038;53.064;8.624;2022-07-06T14:39:56;1.57;;;0.80;;
9997;SDS011;5038;53.064;8.624;2022-07-06T14:42:25;2.50;;;1.00;;
9997;SDS011;5038;53.064;8.624;2022-07-06T14:44:54;2.80;;;1.00;;
9997;SDS011;5038;53.064;8.624;2022-07-06T14:47:22;2.30;;;0.80;;
9997;SDS011;5038;53.064;8.624;2022-07-06T14:49:50;1.90;;;0.83;;
9997;SDS011;5038;53.064;8.624;2022-07-06T14:52:19;2.50;;;0.83;;
9997;SDS011;5038;53.064;8.624;2022-07-06T14:54:47;1.70;;;0.80;;
9997;SDS011;5038;53.064;8.624;2022-07-06T14:57:15;3.13;;;1.00;;
9997;SDS011;5038;53.064;8.624;2022-07-06T14:59:44;3.00;;;1.00;;
9997;SDS011;5038;53.064;8.624;2022-07-06T15:02:14;2.00;;;0.97;;
9997;SDS011;5038;53.064;8.624;2022-07-06T15:04:42;3.30;;;1.20;;
9997;SDS011;5038;53.064;8.624;2022-07-06T15:07:10;4.03;;;1.53;;
9997;SDS011;5038;53.064;8.624;2022-07-06T15:09:38;2.97;;;0.90;;
9997;SDS011;5038;53.064;8.624;2022-07-06T15:12:07;2.53;;;0.90;;
9997;SDS011;5038;53.064;8.624;2022-07-06T15:14:36;3.80;;;1.20;;
9997;SDS011;5038;53.064;8.624;2022-07-06T15:17:04;2.60;;;0.90;;
9997;SDS011;5038;53.064;8.624;2022-07-06T15:19:34;5.53;;;2.17;;
9997;SDS011;5038;53.064;8.624;2022-07-06T15:22:02;1.67;;;0.93;;
9997;SDS011;5038;53.064;8.624;2022-07-06T15:24:30;2.63;;;1.10;;
9997;SDS011;5038;53.064;8.624;2022-07-06T15:26:59;2.37;;;1.10;;
9997;SDS011;5038;53.064;8.624;2022-07-06T15:29:27;2.07;;;1.30;;
9997;SDS011;5038;53.064;8.624;2022-07-06T15:31:55;4.60;;;1.70;;
9997;SDS011;5038;53.064;8.624;2022-07-06T15:34:24;4.10;;;1.00;;